createdAt,value
2018-06-21T00:01:07.948Z,66.26
2018-06-21T00:03:37.249Z,65.94
2018-06-21T00:06:06.552Z,66.21
2018-06-21T00:08:35.831Z,65.70
2018-06-21T00:11:05.273Z,66.04
2018-06-21T00:13:34.557Z,66.76
2018-06-21T00:16:03.903Z,66.89
2018-06-21T00:18:33.272Z,67.35
2018-06-21T00:21:02.855Z,67.00
2018-06-21T00:23:32.152Z,66.85
2018-06-21T00:26:01.609Z,67.36
2018-06-21T00:28:30.897Z,67.98
2018-06-21T00:31:00.204Z,68.32
2018-06-21T00:33:29.522Z,68.49
2018-06-21T00:35:58.802Z,68.14
2018-06-21T00:38:28.118Z,69.26
2018-06-21T00:40:57.424Z,68.88
2018-06-21T00:43:26.680Z,68.85
2018-06-21T00:45:55.968Z,69.52
2018-06-21T00:48:25.274Z,68.80
2018-06-21T00:50:54.607Z,69.46
2018-06-21T00:53:23.942Z,69.69
2018-06-21T00:56:09.938Z,69.86
2018-06-21T00:58:39.228Z,69.83
2018-06-21T01:01:08.706Z,69.80
2018-06-21T01:03:38.049Z,69.46
2018-06-21T01:08:28.876Z,69.71
2018-06-21T01:10:58.253Z,69.95
2018-06-21T01:13:27.536Z,70.13
2018-06-21T01:15:56.816Z,70.24
2018-06-21T01:18:26.133Z,69.84
2018-06-21T01:20:55.534Z,70.00
2018-06-21T01:23:24.904Z,71.13
2018-06-21T01:25:54.209Z,71.56
2018-06-21T01:28:23.507Z,70.92
2018-06-21T01:30:52.902Z,71.68
2018-06-21T01:33:22.218Z,71.41
2018-06-21T01:35:51.579Z,71.35
2018-06-21T01:38:20.852Z,72.13
2018-06-21T01:40:50.160Z,71.86
2018-06-21T01:43:19.645Z,72.85
2018-06-21T01:45:48.703Z,72.54
2018-06-21T01:48:17.971Z,72.28
2018-06-21T01:50:47.250Z,72.42
2018-06-21T01:53:16.552Z,72.88
2018-06-21T01:55:45.916Z,73.93
2018-06-21T01:58:15.284Z,73.61
2018-06-21T02:00:44.656Z,72.90
2018-06-21T02:03:14.014Z,73.73
2018-06-21T02:05:43.358Z,73.95
2018-06-21T02:08:12.678Z,73.63
2018-06-21T02:10:43.091Z,74.07
2018-06-21T02:13:13.449Z,74.59
2018-06-21T02:15:43.201Z,73.79
2018-06-21T02:18:12.930Z,74.88
2018-06-21T02:20:42.279Z,74.30
2018-06-21T02:23:11.736Z,74.81
2018-06-21T02:25:41.391Z,74.33
2018-06-21T02:28:11.638Z,74.28
2018-06-21T02:30:41.132Z,73.57
2018-06-21T02:33:11.192Z,73.88
2018-06-21T02:35:41.681Z,73.96
2018-06-21T02:38:12.413Z,73.86
2018-06-21T02:40:42.491Z,74.27
2018-06-21T02:43:12.905Z,74.11
2018-06-21T02:45:42.696Z,73.23
2018-06-21T02:48:12.976Z,73.66
2018-06-21T02:50:43.057Z,73.21
2018-06-21T02:53:13.164Z,73.09
2018-06-21T02:55:42.818Z,72.82
2018-06-21T02:58:12.171Z,72.80
2018-06-21T03:00:41.663Z,73.04
2018-06-21T03:03:11.233Z,72.38
2018-06-21T03:05:40.649Z,73.52
2018-06-21T03:08:12.200Z,73.08
2018-06-21T03:10:42.475Z,72.80
2018-06-21T03:13:11.899Z,73.32
2018-06-21T03:15:42.575Z,74.45
2018-06-21T03:18:12.516Z,74.28
2018-06-21T03:20:42.143Z,74.54
2018-06-21T03:23:12.495Z,74.89
2018-06-21T03:25:42.145Z,75.08
2018-06-21T03:28:11.618Z,75.24
2018-06-21T03:30:41.280Z,74.86
2018-06-21T03:33:10.668Z,75.47
2018-06-21T03:35:40.036Z,75.30
2018-06-21T03:38:09.421Z,74.89
2018-06-21T03:40:38.782Z,75.45
2018-06-21T03:43:08.150Z,74.47
2018-06-21T03:45:37.510Z,74.82
2018-06-21T03:48:06.899Z,74.53
2018-06-21T03:50:36.766Z,75.15
2018-06-21T03:53:06.237Z,74.81
2018-06-21T03:55:35.626Z,74.43
2018-06-21T03:58:05.024Z,74.76
2018-06-21T04:00:34.429Z,74.99
2018-06-21T04:03:04.066Z,75.50
2018-06-21T04:05:33.402Z,74.55
2018-06-21T04:08:02.840Z,74.73
2018-06-21T04:10:32.143Z,73.87
2018-06-21T04:13:01.602Z,74.15
2018-06-21T04:15:30.961Z,74.18
2018-06-21T04:18:00.394Z,73.64
2018-06-21T04:20:29.725Z,73.51
2018-06-21T04:22:59.328Z,73.94
2018-06-21T04:25:29.475Z,74.96
2018-06-21T04:27:58.751Z,74.42
2018-06-21T04:30:28.087Z,75.05
2018-06-21T04:32:57.618Z,75.11
2018-06-21T04:35:27.154Z,74.57
2018-06-21T04:37:56.620Z,74.59
2018-06-21T04:40:25.986Z,74.70
2018-06-21T04:42:55.287Z,74.52
2018-06-21T04:45:24.785Z,75.19
2018-06-21T04:47:54.315Z,74.71
2018-06-21T04:50:23.633Z,74.20
2018-06-21T04:52:52.933Z,75.02
2018-06-21T04:55:22.236Z,74.27
2018-06-21T04:57:51.647Z,74.56
2018-06-21T05:00:21.002Z,74.86
2018-06-21T05:02:50.301Z,75.01
2018-06-21T05:05:19.719Z,75.20
2018-06-21T05:07:49.307Z,75.62
2018-06-21T05:10:18.608Z,75.70
2018-06-21T05:12:47.930Z,76.40
2018-06-21T05:15:17.302Z,75.48
2018-06-21T05:17:46.618Z,75.59
2018-06-21T05:20:15.920Z,75.77
2018-06-21T05:22:45.286Z,75.95
2018-06-21T05:25:14.827Z,76.22
2018-06-21T05:27:44.064Z,76.55
2018-06-21T05:30:13.460Z,77.70
2018-06-21T05:32:42.833Z,78.07
2018-06-21T05:35:12.219Z,78.82
2018-06-21T05:37:41.629Z,78.39
2018-06-21T05:40:27.314Z,77.41
2018-06-21T05:42:56.634Z,78.58
2018-06-21T05:45:25.903Z,78.55
2018-06-21T05:47:55.177Z,79.93
2018-06-21T05:50:24.594Z,80.56
2018-06-21T05:52:54.023Z,80.22
2018-06-21T05:55:23.328Z,80.77
2018-06-21T05:57:52.820Z,82.03
2018-06-21T06:00:22.343Z,82.84
2018-06-21T06:02:51.893Z,84.62
2018-06-21T06:05:21.280Z,84.33
2018-06-21T06:07:50.810Z,85.51
2018-06-21T06:10:20.440Z,85.15
2018-06-21T06:12:49.771Z,86.58
2018-06-21T06:15:19.045Z,86.24
2018-06-21T06:17:48.322Z,86.97
2018-06-21T06:20:17.592Z,88.58
2018-06-21T06:22:46.882Z,86.69
2018-06-21T06:25:15.968Z,86.20
2018-06-21T06:27:45.310Z,87.32
2018-06-21T06:30:14.833Z,87.11
2018-06-21T06:32:44.256Z,85.96
2018-06-21T06:35:13.666Z,85.60
2018-06-21T06:37:42.807Z,84.12
2018-06-21T06:40:12.222Z,84.33
2018-06-21T06:42:41.597Z,84.28
2018-06-21T06:45:10.895Z,83.01
2018-06-21T06:47:40.334Z,81.24
2018-06-21T06:50:09.919Z,81.17
2018-06-21T06:52:40.302Z,79.47
2018-06-21T06:55:09.669Z,78.18
2018-06-21T06:57:39.461Z,79.02
2018-06-21T07:00:09.086Z,78.53
2018-06-21T07:02:38.484Z,76.63
2018-06-21T07:05:08.539Z,77.32
2018-06-21T07:07:38.049Z,76.46
2018-06-21T07:10:07.469Z,76.66
2018-06-21T07:12:36.767Z,76.15
2018-06-21T07:15:06.189Z,74.53
2018-06-21T07:17:35.518Z,75.04
2018-06-21T07:20:04.809Z,73.89
2018-06-21T07:22:34.113Z,74.01
2018-06-21T07:25:03.397Z,72.14
2018-06-21T07:27:32.731Z,71.46
2018-06-21T07:30:02.047Z,72.25
2018-06-21T07:32:31.381Z,69.15
2018-06-21T07:35:00.712Z,68.89
2018-06-21T07:37:30.253Z,67.94
2018-06-21T07:39:59.500Z,67.77
2018-06-21T07:42:28.821Z,70.11
2018-06-21T07:44:58.142Z,69.82
2018-06-21T07:47:27.131Z,70.51
2018-06-21T07:49:56.396Z,70.11
2018-06-21T07:52:25.691Z,69.59
2018-06-21T07:54:55.089Z,67.87
2018-06-21T07:57:24.367Z,65.22
2018-06-21T07:59:53.837Z,63.47
2018-06-21T08:02:23.320Z,66.63
2018-06-21T08:04:52.618Z,64.51
2018-06-21T08:07:22.920Z,63.20
2018-06-21T08:09:52.197Z,64.53
2018-06-21T08:12:21.450Z,64.07
2018-06-21T08:14:50.748Z,64.90
2018-06-21T08:17:19.990Z,65.30
2018-06-21T08:19:49.329Z,63.73
2018-06-21T08:22:18.619Z,61.94
2018-06-21T08:24:47.898Z,61.23
2018-06-21T08:27:17.171Z,61.37
2018-06-21T08:29:46.554Z,60.20
2018-06-21T08:32:15.962Z,61.08
2018-06-21T08:34:45.526Z,58.43
2018-06-21T08:37:14.872Z,56.05
2018-06-21T08:39:44.216Z,51.86
2018-06-21T08:42:13.556Z,52.54
2018-06-21T08:44:43.048Z,52.15
2018-06-21T08:47:12.438Z,51.07
2018-06-21T08:49:41.979Z,52.60
2018-06-21T08:52:11.298Z,51.35
2018-06-21T08:54:40.755Z,52.57
2018-06-21T08:57:10.141Z,49.91
2018-06-21T08:59:39.588Z,49.58
2018-06-21T09:04:37.389Z,47.31
2018-06-21T09:07:06.677Z,46.33
2018-06-21T09:09:35.992Z,44.73
2018-06-21T09:12:05.332Z,45.05
2018-06-21T09:14:34.599Z,43.93
2018-06-21T09:17:03.868Z,43.88
2018-06-21T09:19:33.131Z,42.04
2018-06-21T09:22:02.436Z,43.31
2018-06-21T09:24:31.504Z,42.92
2018-06-21T09:30:00.338Z,46.59
2018-06-21T09:32:30.752Z,47.00
2018-06-21T09:35:00.031Z,48.60
2018-06-21T09:37:34.406Z,48.49
2018-06-21T09:40:08.769Z,50.57
2018-06-21T09:43:50.298Z,47.81
2018-06-21T09:46:15.506Z,47.39
2018-06-21T09:48:49.826Z,47.17
2018-06-21T09:51:19.556Z,47.68
2018-06-21T09:53:48.821Z,44.64
2018-06-21T09:56:18.172Z,44.73
2018-06-21T09:58:47.507Z,42.42
2018-06-21T10:01:16.953Z,44.20
2018-06-21T10:03:46.449Z,43.83
2018-06-21T10:06:15.734Z,43.52
2018-06-21T10:08:45.028Z,41.63
2018-06-21T10:11:14.316Z,39.50
2018-06-21T10:13:43.628Z,40.09
2018-06-21T10:16:13.080Z,39.46
2018-06-21T10:18:42.415Z,42.76
2018-06-21T10:21:11.883Z,39.51
2018-06-21T10:23:40.880Z,38.21
2018-06-21T10:26:10.255Z,36.09
2018-06-21T10:28:39.617Z,37.87
2018-06-21T10:31:08.922Z,37.66
2018-06-21T10:33:38.230Z,36.90
2018-06-21T10:36:07.566Z,35.28
2018-06-21T10:38:36.841Z,34.09
2018-06-21T10:41:06.233Z,33.18
2018-06-21T10:43:35.514Z,32.40
2018-06-21T10:46:04.825Z,31.82
2018-06-21T10:48:34.234Z,33.44
2018-06-21T10:51:03.547Z,33.38
2018-06-21T10:53:32.795Z,32.01
2018-06-21T10:56:02.099Z,32.55
2018-06-21T10:58:31.458Z,33.49
2018-06-21T11:01:00.781Z,32.17
2018-06-21T11:03:29.985Z,31.94
2018-06-21T11:05:59.242Z,34.04
2018-06-21T11:08:28.629Z,32.38
2018-06-21T11:10:57.909Z,31.31
2018-06-21T11:13:27.176Z,29.23
2018-06-21T11:15:56.594Z,30.15
2018-06-21T11:18:25.850Z,29.06
2018-06-21T11:20:55.153Z,29.58
2018-06-21T11:23:24.414Z,29.19
2018-06-21T11:25:53.735Z,28.86
2018-06-21T11:28:23.069Z,28.55
2018-06-21T11:30:52.347Z,30.64
2018-06-21T11:33:21.633Z,30.79
2018-06-21T11:35:50.919Z,31.37
2018-06-21T11:38:20.318Z,30.94
2018-06-21T11:40:49.617Z,31.21
2018-06-21T11:43:18.957Z,30.25
2018-06-21T11:45:48.238Z,30.85
2018-06-21T11:48:17.552Z,31.74
2018-06-21T11:50:46.867Z,31.49
2018-06-21T11:53:17.231Z,29.04
2018-06-21T11:55:46.617Z,30.33
2018-06-21T11:58:15.866Z,31.33
2018-06-21T12:00:49.254Z,31.78
2018-06-21T12:03:18.762Z,33.66
2018-06-21T12:05:48.443Z,33.46
2018-06-21T12:08:17.784Z,33.34
2018-06-21T12:10:47.018Z,34.64
2018-06-21T12:13:16.313Z,34.10
2018-06-21T12:15:45.555Z,33.56
2018-06-21T12:18:14.922Z,32.66
2018-06-21T12:20:44.314Z,30.25
2018-06-21T12:23:13.579Z,30.09
2018-06-21T12:25:42.970Z,31.43
2018-06-21T12:28:12.550Z,29.25
2018-06-21T12:30:42.023Z,30.40
2018-06-21T12:33:11.323Z,31.30
2018-06-21T12:35:41.173Z,31.77
2018-06-21T12:38:10.638Z,31.55
2018-06-21T12:40:39.960Z,30.57
2018-06-21T12:43:09.420Z,29.82
2018-06-21T12:45:38.706Z,29.56
2018-06-21T12:48:07.988Z,30.00
2018-06-21T12:50:37.347Z,30.48
2018-06-21T12:53:06.596Z,31.25
2018-06-21T12:55:35.895Z,28.86
2018-06-21T12:58:05.249Z,29.34
2018-06-21T13:00:34.541Z,30.85
2018-06-21T13:03:03.792Z,29.46
2018-06-21T13:05:33.173Z,29.61
2018-06-21T13:08:02.408Z,29.78
2018-06-21T13:10:48.453Z,30.67
2018-06-21T13:13:23.867Z,30.17
2018-06-21T13:15:53.248Z,30.32
2018-06-21T13:18:22.557Z,29.37
2018-06-21T13:20:51.878Z,31.67
2018-06-21T13:23:21.171Z,31.28
2018-06-21T13:25:50.433Z,33.02
2018-06-21T13:28:19.697Z,30.65
2018-06-21T13:30:48.970Z,30.42
2018-06-21T13:33:18.294Z,29.12
2018-06-21T13:35:47.609Z,30.85
2018-06-21T13:38:16.917Z,31.69
2018-06-21T13:40:46.195Z,32.05
2018-06-21T13:43:15.487Z,33.15
2018-06-21T13:45:44.932Z,33.13
2018-06-21T13:48:14.240Z,32.89
2018-06-21T13:50:43.568Z,31.96
2018-06-21T13:53:12.928Z,33.13
2018-06-21T13:55:42.252Z,32.93
2018-06-21T13:58:11.533Z,33.53
2018-06-21T14:00:40.863Z,33.07
2018-06-21T14:03:10.177Z,32.91
2018-06-21T14:05:39.516Z,33.07
2018-06-21T14:08:08.966Z,31.86
2018-06-21T14:10:44.882Z,32.61
2018-06-21T14:13:14.148Z,33.23
2018-06-21T14:15:43.461Z,34.87
2018-06-21T14:18:12.735Z,34.94
2018-06-21T14:20:42.090Z,33.92
2018-06-21T14:23:11.383Z,34.59
2018-06-21T14:25:40.648Z,31.98
2018-06-21T14:28:10.003Z,33.50
2018-06-21T14:30:39.456Z,34.88
2018-06-21T14:33:08.722Z,35.29
2018-06-21T14:35:38.106Z,35.89
2018-06-21T14:38:07.377Z,36.37
2018-06-21T14:40:36.625Z,36.42
2018-06-21T14:43:06.117Z,36.90
2018-06-21T14:45:35.375Z,36.52
2018-06-21T14:48:04.777Z,36.46
2018-06-21T14:50:34.073Z,37.55
2018-06-21T14:53:04.368Z,38.12
2018-06-21T14:55:33.738Z,36.98
2018-06-21T14:58:03.005Z,38.15
2018-06-21T15:00:32.395Z,38.83
2018-06-21T15:03:01.771Z,38.00
2018-06-21T15:05:31.050Z,37.61
2018-06-21T15:08:00.414Z,36.19
2018-06-21T15:10:29.548Z,36.73
2018-06-21T15:12:58.834Z,37.28
2018-06-21T15:15:28.074Z,36.81
2018-06-21T15:17:57.327Z,37.15
2018-06-21T15:20:26.671Z,37.92
2018-06-21T15:22:58.996Z,37.84
2018-06-21T15:25:28.291Z,39.13
2018-06-21T15:27:57.536Z,38.32
2018-06-21T15:30:26.787Z,39.46
2018-06-21T15:32:56.187Z,39.20
2018-06-21T15:35:25.502Z,39.99
2018-06-21T15:37:54.817Z,38.72
2018-06-21T15:40:24.088Z,39.30
2018-06-21T15:42:53.401Z,40.27
2018-06-21T15:45:22.696Z,38.03
2018-06-21T15:47:52.055Z,38.70
2018-06-21T15:50:21.395Z,38.78
2018-06-21T15:52:50.666Z,40.88
2018-06-21T15:55:19.940Z,41.77
2018-06-21T15:57:49.261Z,41.88
2018-06-21T16:00:18.541Z,40.28
2018-06-21T16:02:47.917Z,39.79
2018-06-21T16:05:17.165Z,41.71
2018-06-21T16:07:46.524Z,40.31
2018-06-21T16:10:15.929Z,42.29
2018-06-21T16:12:45.226Z,41.02
2018-06-21T16:15:14.550Z,41.38
2018-06-21T16:17:43.917Z,41.35
2018-06-21T16:20:13.359Z,42.00
2018-06-21T16:22:42.917Z,41.03
2018-06-21T16:25:12.299Z,41.40
2018-06-21T16:27:41.714Z,43.20
2018-06-21T16:30:11.196Z,43.10
2018-06-21T16:32:40.587Z,42.98
2018-06-21T16:35:09.964Z,42.63
2018-06-21T16:37:39.326Z,42.85
2018-06-21T16:40:08.713Z,42.40
2018-06-21T16:42:38.078Z,43.14
2018-06-21T16:45:07.412Z,43.73
2018-06-21T16:47:36.676Z,43.55
2018-06-21T16:50:05.956Z,43.92
2018-06-21T16:52:35.254Z,44.04
2018-06-21T16:55:04.569Z,44.37
2018-06-21T16:57:33.830Z,44.04
2018-06-21T17:00:03.072Z,44.25
2018-06-21T17:02:32.359Z,43.89
2018-06-21T17:05:01.632Z,44.46
2018-06-21T17:07:30.911Z,44.34
2018-06-21T17:10:00.301Z,44.38
2018-06-21T17:12:29.581Z,44.79
2018-06-21T17:14:58.917Z,45.64
2018-06-21T17:17:28.221Z,45.30
2018-06-21T17:19:57.490Z,45.47
2018-06-21T17:22:26.743Z,46.10
2018-06-21T17:24:56.029Z,47.05
2018-06-21T17:27:25.291Z,46.88
2018-06-21T17:29:54.565Z,47.56
2018-06-21T17:32:23.863Z,47.96
2018-06-21T17:34:53.254Z,47.70
2018-06-21T17:37:22.499Z,47.34
2018-06-21T17:39:51.876Z,47.47
2018-06-21T17:42:21.146Z,48.31
2018-06-21T17:44:50.607Z,48.54
2018-06-21T17:47:19.904Z,48.68
2018-06-21T17:49:49.264Z,48.31
2018-06-21T17:52:18.620Z,48.11
2018-06-21T17:54:48.091Z,49.14
2018-06-21T17:57:17.461Z,49.92
2018-06-21T17:59:49.581Z,49.17
2018-06-21T18:02:18.940Z,50.28
2018-06-21T18:04:48.243Z,49.74
2018-06-21T18:07:18.341Z,50.59
2018-06-21T18:09:50.112Z,50.77
2018-06-21T18:12:19.625Z,51.23
2018-06-21T18:14:48.889Z,50.58
2018-06-21T18:17:18.355Z,49.83
2018-06-21T18:19:47.688Z,49.40
2018-06-21T18:22:17.017Z,48.91
2018-06-21T18:24:47.525Z,48.42
2018-06-21T18:27:16.913Z,49.04
2018-06-21T18:29:46.206Z,49.22
2018-06-21T18:32:15.626Z,47.45
2018-06-21T18:34:44.967Z,49.64
2018-06-21T18:37:14.333Z,49.55
2018-06-21T18:39:43.931Z,49.17
2018-06-21T18:42:13.247Z,49.53
2018-06-21T18:44:42.637Z,50.08
2018-06-21T18:47:12.015Z,50.36
2018-06-21T18:49:41.426Z,51.56
2018-06-21T18:52:10.812Z,51.22
2018-06-21T18:54:40.180Z,51.71
2018-06-21T18:57:09.571Z,49.93
2018-06-21T18:59:38.884Z,49.56
2018-06-21T19:02:08.245Z,47.64
2018-06-21T19:04:37.551Z,47.91
2018-06-21T19:07:13.049Z,48.17
2018-06-21T19:09:47.655Z,48.69
2018-06-21T19:12:18.245Z,49.16
2018-06-21T19:14:47.553Z,50.17
2018-06-21T19:17:16.852Z,49.52
2018-06-21T19:19:46.261Z,49.63
2018-06-21T19:22:15.391Z,50.05
2018-06-21T19:24:44.695Z,49.96
2018-06-21T19:27:13.946Z,50.74
2018-06-21T19:29:43.517Z,51.60
2018-06-21T19:32:13.192Z,51.47
2018-06-21T19:34:42.503Z,52.36
2018-06-21T19:37:12.523Z,53.14
2018-06-21T19:39:41.705Z,53.28
2018-06-21T19:42:11.194Z,54.65
2018-06-21T19:44:40.575Z,55.34
2018-06-21T19:47:10.252Z,55.24
2018-06-21T19:49:39.593Z,55.17
2018-06-21T19:52:09.001Z,56.07
2018-06-21T19:54:38.294Z,55.87
2018-06-21T19:57:07.607Z,57.01
2018-06-21T19:59:36.945Z,57.07
2018-06-21T20:02:06.231Z,56.77
2018-06-21T20:04:35.610Z,57.60
2018-06-21T20:07:04.875Z,58.41
2018-06-21T20:09:34.201Z,59.07
2018-06-21T20:12:05.198Z,59.23
2018-06-21T20:14:35.537Z,59.37
2018-06-21T20:17:06.954Z,58.94
2018-06-21T20:19:41.495Z,59.04
2018-06-21T20:22:11.030Z,59.36
2018-06-21T20:24:40.636Z,59.55
2018-06-21T20:27:09.915Z,59.77
2018-06-21T20:29:39.252Z,59.92
2018-06-21T20:32:08.639Z,59.39
2018-06-21T20:34:37.936Z,59.34
2018-06-21T20:37:11.339Z,60.15
2018-06-21T20:39:40.766Z,59.96
2018-06-21T20:42:10.141Z,59.58
2018-06-21T20:44:39.472Z,59.11
2018-06-21T20:47:08.900Z,59.78
2018-06-21T20:49:38.289Z,59.96
2018-06-21T20:52:12.083Z,60.94
2018-06-21T20:54:41.525Z,61.34
2018-06-21T20:57:11.021Z,61.03
2018-06-21T20:59:40.197Z,60.40
2018-06-21T21:02:10.906Z,59.64
2018-06-21T21:05:12.749Z,59.57
2018-06-21T21:07:42.489Z,59.94
2018-06-21T21:10:13.081Z,59.90
2018-06-21T21:12:42.552Z,60.02
2018-06-21T21:15:13.072Z,61.67
2018-06-21T21:17:42.954Z,62.72
2018-06-21T21:20:12.570Z,61.62
2018-06-21T21:22:42.318Z,62.55
2018-06-21T21:25:13.187Z,62.88
2018-06-21T21:27:47.993Z,62.42
2018-06-21T21:30:18.651Z,62.36
2018-06-21T21:32:48.346Z,62.43
2018-06-21T21:35:18.399Z,62.85
2018-06-21T21:37:48.151Z,63.11
2018-06-21T21:40:18.144Z,63.06
2018-06-21T21:42:47.505Z,63.25
2018-06-21T21:45:16.963Z,62.80
2018-06-21T21:47:46.935Z,62.35
2018-06-21T21:50:16.530Z,62.93
2018-06-21T21:52:46.489Z,62.69
2018-06-21T21:55:15.915Z,63.15
2018-06-21T21:57:47.754Z,64.13
2018-06-21T22:01:00.609Z,63.47
2018-06-21T22:03:31.793Z,64.15
2018-06-21T22:06:01.146Z,63.16
2018-06-21T22:08:30.391Z,64.31
2018-06-21T22:10:59.703Z,63.64
2018-06-21T22:13:29.094Z,64.75
2018-06-21T22:15:58.339Z,64.62
2018-06-21T22:18:27.701Z,62.74
2018-06-21T22:20:57.027Z,63.82
2018-06-21T22:23:26.307Z,62.82
2018-06-21T22:25:55.649Z,62.88
2018-06-21T22:28:24.945Z,62.62
2018-06-21T22:30:54.208Z,63.56
2018-06-21T22:33:24.462Z,63.95
2018-06-21T22:35:54.359Z,63.53
2018-06-21T22:38:25.594Z,62.26
2018-06-21T22:40:56.110Z,63.26
2018-06-21T22:43:25.434Z,63.55
2018-06-21T22:45:55.283Z,63.58
2018-06-21T22:48:25.081Z,62.85
2018-06-21T22:50:55.152Z,63.25
2018-06-21T22:53:24.573Z,63.34
2018-06-21T22:55:55.102Z,62.79
2018-06-21T22:58:24.404Z,63.98
2018-06-21T23:00:53.699Z,64.01
2018-06-21T23:03:22.976Z,64.73
2018-06-21T23:05:52.234Z,65.46
2018-06-21T23:08:21.498Z,64.66
2018-06-21T23:10:50.881Z,65.04
2018-06-21T23:13:20.118Z,65.31
2018-06-21T23:15:49.537Z,64.79
2018-06-21T23:19:28.794Z,65.54
2018-06-21T23:21:58.204Z,65.56
2018-06-21T23:24:27.709Z,65.61
2018-06-21T23:26:57.082Z,65.68
2018-06-21T23:29:26.313Z,66.57
2018-06-21T23:31:55.680Z,65.98
2018-06-21T23:34:24.947Z,65.74
2018-06-21T23:36:54.214Z,65.80
2018-06-21T23:39:25.418Z,65.77
2018-06-21T23:41:54.652Z,65.86
2018-06-21T23:44:30.082Z,65.21
2018-06-21T23:46:59.365Z,65.54
2018-06-21T23:49:28.662Z,65.64
2018-06-21T23:51:57.958Z,65.47
2018-06-21T23:54:27.876Z,66.72
2018-06-21T23:56:57.139Z,66.17
2018-06-21T23:59:29.100Z,66.18
